createdAt,value
2023-04-18T00:00:33.363Z,89.25
2023-04-18T00:03:51.191Z,89.16
2023-04-18T00:06:54.294Z,89.23
2023-04-18T00:09:57.121Z,89.31
2023-04-18T00:13:00.468Z,89.55
2023-04-18T00:16:03.965Z,89.96
2023-04-18T00:19:06.784Z,89.73
2023-04-18T00:22:10.733Z,89.85
2023-04-18T00:25:13.725Z,89.61
2023-04-18T00:28:16.442Z,89.90
2023-04-18T00:31:19.209Z,89.97
2023-04-18T00:34:21.964Z,90.28
2023-04-18T00:37:24.759Z,90.08
2023-04-18T00:40:27.518Z,89.99
2023-04-18T00:43:30.496Z,90.72
2023-04-18T00:46:33.328Z,90.60
2023-04-18T00:49:36.252Z,90.88
2023-04-18T00:52:39.313Z,90.85
2023-04-18T00:55:42.214Z,91.00
2023-04-18T00:58:45.030Z,91.34
2023-04-18T01:01:47.953Z,91.23
2023-04-18T01:04:50.776Z,91.29
2023-04-18T01:07:58.773Z,91.48
2023-04-18T01:11:01.981Z,91.74
2023-04-18T01:14:08.149Z,91.72
2023-04-18T01:17:13.523Z,91.34
2023-04-18T01:20:17.037Z,91.48
2023-04-18T01:23:20.751Z,91.80
2023-04-18T01:26:23.781Z,92.02
2023-04-18T01:29:26.844Z,92.18
2023-04-18T01:32:29.752Z,92.27
2023-04-18T01:35:33.856Z,92.13
2023-04-18T01:38:36.598Z,92.27
2023-04-18T01:41:39.456Z,92.18
2023-04-18T01:44:43.246Z,92.30
2023-04-18T01:47:47.085Z,92.42
2023-04-18T01:50:49.961Z,92.37
2023-04-18T01:53:52.740Z,92.54
2023-04-18T01:56:55.486Z,92.24
2023-04-18T01:59:58.567Z,92.53
2023-04-18T02:03:01.678Z,92.09
2023-04-18T02:06:05.797Z,92.45
2023-04-18T02:09:08.545Z,92.38
2023-04-18T02:12:12.613Z,92.33
2023-04-18T02:15:15.682Z,92.57
2023-04-18T02:18:18.534Z,92.36
2023-04-18T02:21:22.842Z,92.63
2023-04-18T02:24:25.794Z,92.73
2023-04-18T02:27:28.534Z,92.87
2023-04-18T02:30:32.959Z,92.78
2023-04-18T02:33:38.143Z,93.03
2023-04-18T02:36:40.887Z,92.98
2023-04-18T02:39:46.434Z,92.90
2023-04-18T02:42:49.169Z,92.95
2023-04-18T02:45:51.888Z,93.16
2023-04-18T02:48:54.707Z,92.94
2023-04-18T02:51:59.677Z,93.12
2023-04-18T02:55:02.459Z,93.04
2023-04-18T02:58:10.122Z,93.13
2023-04-18T03:01:12.919Z,93.07
2023-04-18T03:04:35.997Z,93.22
2023-04-18T03:07:41.658Z,93.20
2023-04-18T03:10:45.173Z,93.49
2023-04-18T03:13:48.487Z,93.21
2023-04-18T03:16:53.862Z,93.13
2023-04-18T03:20:00.899Z,93.45
2023-04-18T03:23:05.509Z,93.56
2023-04-18T03:26:09.005Z,93.59
2023-04-18T03:29:12.897Z,93.59
2023-04-18T03:32:17.472Z,93.49
2023-04-18T03:35:20.822Z,93.58
2023-04-18T03:38:23.809Z,93.57
2023-04-18T03:41:26.712Z,93.74
2023-04-18T03:44:31.526Z,93.66
2023-04-18T03:47:34.392Z,93.71
2023-04-18T03:50:37.366Z,93.68
2023-04-18T03:53:41.140Z,93.53
2023-04-18T03:56:45.158Z,93.29
2023-04-18T03:59:48.242Z,93.47
2023-04-18T04:02:51.660Z,93.49
2023-04-18T04:05:56.888Z,93.35
2023-04-18T04:09:00.122Z,93.45
2023-04-18T04:12:04.761Z,93.36
2023-04-18T04:15:08.962Z,93.28
2023-04-18T04:18:13.836Z,93.61
2023-04-18T04:21:20.076Z,93.88
2023-04-18T04:24:29.136Z,93.64
2023-04-18T04:27:34.102Z,93.67
2023-04-18T04:30:38.263Z,93.83
2023-04-18T04:33:41.242Z,93.88
2023-04-18T04:36:51.203Z,93.91
2023-04-18T04:39:55.596Z,93.77
2023-04-18T04:43:15.773Z,93.86
2023-04-18T04:46:20.386Z,93.73
2023-04-18T04:49:25.583Z,93.77
2023-04-18T04:52:28.284Z,94.00
2023-04-18T04:55:32.584Z,93.92
2023-04-18T04:58:36.976Z,93.74
2023-04-18T05:01:46.741Z,93.66
2023-04-18T05:04:50.698Z,93.90
2023-04-18T05:07:53.792Z,93.88
2023-04-18T05:10:56.641Z,93.77
2023-04-18T05:13:59.693Z,93.52
2023-04-18T05:17:04.141Z,93.90
2023-04-18T05:20:07.865Z,93.77
2023-04-18T05:23:10.654Z,93.95
2023-04-18T05:26:13.465Z,94.03
2023-04-18T05:29:16.329Z,93.74
2023-04-18T05:32:19.142Z,93.68
2023-04-18T05:35:22.090Z,94.01
2023-04-18T05:38:25.101Z,93.71
2023-04-18T05:41:27.822Z,93.73
2023-04-18T05:44:30.598Z,93.99
2023-04-18T05:47:33.790Z,93.88
2023-04-18T05:50:36.817Z,93.73
2023-04-18T05:53:39.674Z,93.77
2023-04-18T05:56:42.842Z,93.55
2023-04-18T05:59:45.913Z,93.54
2023-04-18T06:02:49.709Z,93.41
2023-04-18T06:05:52.992Z,93.30
2023-04-18T06:08:55.916Z,93.63
2023-04-18T06:11:58.723Z,93.63
2023-04-18T06:15:01.957Z,93.74
2023-04-18T06:18:04.905Z,93.55
2023-04-18T06:21:07.812Z,93.51
2023-04-18T06:24:10.593Z,93.53
2023-04-18T06:27:24.393Z,93.45
2023-04-18T06:30:33.992Z,93.16
2023-04-18T06:33:37.908Z,93.26
2023-04-18T06:36:41.030Z,93.32
2023-04-18T06:39:43.887Z,93.51
2023-04-18T06:42:46.819Z,93.17
2023-04-18T06:45:49.824Z,93.22
2023-04-18T06:48:52.623Z,93.09
2023-04-18T06:51:55.558Z,93.07
2023-04-18T06:54:58.354Z,92.97
2023-04-18T06:58:01.276Z,92.77
2023-04-18T07:01:04.034Z,92.96
2023-04-18T07:04:07.132Z,92.64
2023-04-18T07:07:10.178Z,92.90
2023-04-18T07:10:12.911Z,93.15
2023-04-18T07:13:16.025Z,92.94
2023-04-18T07:16:18.970Z,92.84
2023-04-18T07:19:21.869Z,92.60
2023-04-18T07:22:24.640Z,92.74
2023-04-18T07:25:27.680Z,92.71
2023-04-18T07:28:31.938Z,92.69
2023-04-18T07:31:34.985Z,92.26
2023-04-18T07:34:37.786Z,92.62
2023-04-18T07:37:40.747Z,92.07
2023-04-18T07:40:45.673Z,92.43
2023-04-18T07:43:48.550Z,92.40
2023-04-18T07:46:51.979Z,91.94
2023-04-18T07:49:55.043Z,92.15
2023-04-18T07:52:57.873Z,92.25
2023-04-18T07:56:00.650Z,92.22
2023-04-18T07:59:03.700Z,91.94
2023-04-18T08:02:06.690Z,91.86
2023-04-18T08:05:10.276Z,91.92
2023-04-18T08:08:13.453Z,91.60
2023-04-18T08:11:16.562Z,91.45
2023-04-18T08:14:19.286Z,90.78
2023-04-18T08:17:23.080Z,90.63
2023-04-18T08:20:25.970Z,90.11
2023-04-18T08:23:28.985Z,90.23
2023-04-18T08:26:31.794Z,90.24
2023-04-18T08:29:34.572Z,90.03
2023-04-18T08:32:37.555Z,90.28
2023-04-18T08:35:40.958Z,90.08
2023-04-18T08:38:43.724Z,89.93
2023-04-18T08:41:53.682Z,89.69
2023-04-18T08:44:58.968Z,89.49
2023-04-18T08:48:03.682Z,88.70
2023-04-18T08:51:07.111Z,88.83
2023-04-18T08:54:10.439Z,89.20
2023-04-18T08:57:16.742Z,88.58
2023-04-18T09:00:19.900Z,88.20
2023-04-18T09:03:55.214Z,88.03
2023-04-18T09:06:58.134Z,87.74
2023-04-18T09:10:01.085Z,87.60
2023-04-18T09:13:04.436Z,86.99
2023-04-18T09:16:07.212Z,86.56
2023-04-18T09:19:13.115Z,86.18
2023-04-18T09:22:18.014Z,85.95
2023-04-18T09:25:46.752Z,86.14
2023-04-18T09:28:53.977Z,86.01
2023-04-18T09:32:01.346Z,85.58
2023-04-18T09:35:05.494Z,85.34
2023-04-18T09:38:08.788Z,85.39
2023-04-18T09:41:13.046Z,85.25
2023-04-18T09:44:17.704Z,85.07
2023-04-18T09:47:20.814Z,84.71
2023-04-18T09:50:24.000Z,84.55
2023-04-18T09:53:28.354Z,84.64
2023-04-18T09:56:34.483Z,84.37
2023-04-18T09:59:44.213Z,83.89
2023-04-18T10:02:51.502Z,83.55
2023-04-18T10:05:57.768Z,83.99
2023-04-18T10:09:03.455Z,84.02
2023-04-18T10:12:06.708Z,84.10
2023-04-18T10:15:11.169Z,83.79
2023-04-18T10:18:17.086Z,83.62
2023-04-18T10:21:21.965Z,83.36
2023-04-18T10:24:50.200Z,83.11
2023-04-18T10:27:58.458Z,83.09
2023-04-18T10:31:05.789Z,83.10
2023-04-18T10:34:08.710Z,83.03
2023-04-18T10:37:13.103Z,82.35
2023-04-18T10:40:15.868Z,82.23
2023-04-18T10:43:18.877Z,81.15
2023-04-18T10:46:31.676Z,81.05
2023-04-18T10:49:38.347Z,81.34
2023-04-18T10:52:41.917Z,80.56
2023-04-18T10:55:55.232Z,79.54
2023-04-18T10:59:01.964Z,80.26
2023-04-18T11:02:23.208Z,80.69
2023-04-18T11:05:28.904Z,80.22
2023-04-18T11:08:31.611Z,80.22
2023-04-18T11:11:34.454Z,80.15
2023-04-18T11:14:44.741Z,78.83
2023-04-18T11:17:57.109Z,78.83
2023-04-18T11:21:03.791Z,78.96
2023-04-18T11:24:06.691Z,79.05
2023-04-18T11:27:11.712Z,78.22
2023-04-18T11:30:15.597Z,77.74
2023-04-18T11:33:18.393Z,77.51
2023-04-18T11:36:21.614Z,76.89
2023-04-18T11:39:24.819Z,77.61
2023-04-18T11:42:31.191Z,77.02
2023-04-18T11:45:34.041Z,76.99
2023-04-18T11:48:45.383Z,75.71
2023-04-18T11:51:48.424Z,74.80
2023-04-18T11:54:51.393Z,74.15
2023-04-18T11:57:56.045Z,73.39
2023-04-18T12:01:00.029Z,73.49
2023-04-18T12:04:10.909Z,72.73
2023-04-18T12:07:14.104Z,72.75
2023-04-18T12:10:19.925Z,73.74
2023-04-18T12:13:31.523Z,73.53
2023-04-18T12:16:35.124Z,73.15
2023-04-18T12:19:37.964Z,72.80
2023-04-18T12:22:43.537Z,72.08
2023-04-18T12:25:59.876Z,72.28
2023-04-18T12:29:02.726Z,72.11
2023-04-18T12:32:06.154Z,72.10
2023-04-18T12:35:09.462Z,71.66
2023-04-18T12:38:12.600Z,68.81
2023-04-18T12:41:15.311Z,68.48
2023-04-18T12:44:18.294Z,68.28
2023-04-18T12:47:21.080Z,69.23
2023-04-18T12:50:26.532Z,69.88
2023-04-18T12:53:29.356Z,70.14
2023-04-18T12:56:32.147Z,70.39
2023-04-18T12:59:34.995Z,69.99
2023-04-18T13:02:39.495Z,69.64
2023-04-18T13:05:42.681Z,69.59
2023-04-18T13:08:47.460Z,69.37
2023-04-18T13:11:50.568Z,70.20
2023-04-18T13:14:53.272Z,70.28
2023-04-18T13:17:56.839Z,69.88
2023-04-18T13:20:59.909Z,68.88
2023-04-18T13:24:02.662Z,69.29
2023-04-18T13:27:10.372Z,69.34
2023-04-18T13:30:13.731Z,69.85
2023-04-18T13:33:17.117Z,69.55
2023-04-18T13:36:20.763Z,69.16
2023-04-18T13:39:24.895Z,69.03
2023-04-18T13:42:27.751Z,68.49
2023-04-18T13:45:30.530Z,68.86
2023-04-18T13:48:33.280Z,69.25
2023-04-18T13:51:36.065Z,69.15
2023-04-18T13:54:38.805Z,68.94
2023-04-18T13:57:41.717Z,69.32
2023-04-18T14:00:44.556Z,68.94
2023-04-18T14:03:47.631Z,68.81
2023-04-18T14:06:51.011Z,68.79
2023-04-18T14:09:54.015Z,68.68
2023-04-18T14:12:57.523Z,68.71
2023-04-18T14:16:00.940Z,68.27
2023-04-18T14:19:03.954Z,68.05
2023-04-18T14:22:08.031Z,68.78
2023-04-18T14:25:11.036Z,68.80
2023-04-18T14:28:13.905Z,68.77
2023-04-18T14:31:16.923Z,68.80
2023-04-18T14:34:19.783Z,69.05
2023-04-18T14:37:22.499Z,69.36
2023-04-18T14:40:25.254Z,69.68
2023-04-18T14:43:28.036Z,69.68
2023-04-18T14:46:31.026Z,69.94
2023-04-18T14:49:34.321Z,70.27
2023-04-18T14:52:37.841Z,70.30
2023-04-18T14:55:40.622Z,70.51
2023-04-18T14:59:16.422Z,70.58
2023-04-18T15:02:19.991Z,70.60
2023-04-18T15:05:26.064Z,70.82
2023-04-18T15:08:31.338Z,70.50
2023-04-18T15:11:35.486Z,70.26
2023-04-18T15:14:38.267Z,70.03
2023-04-18T15:17:41.368Z,69.90
2023-04-18T15:20:44.400Z,70.26
2023-04-18T15:23:47.267Z,70.31
2023-04-18T15:26:50.014Z,70.11
2023-04-18T15:29:53.353Z,69.22
2023-04-18T15:32:56.612Z,69.42
2023-04-18T15:35:59.557Z,69.15
2023-04-18T15:39:05.918Z,68.57
2023-04-18T15:42:08.823Z,68.69
2023-04-18T15:45:12.353Z,68.92
2023-04-18T15:48:15.113Z,68.85
2023-04-18T15:51:18.114Z,68.68
2023-04-18T15:54:20.847Z,68.78
2023-04-18T15:57:23.630Z,68.66
2023-04-18T16:00:26.445Z,68.88
2023-04-18T16:03:29.396Z,68.61
2023-04-18T16:06:32.457Z,68.68
2023-04-18T16:09:35.192Z,68.94
2023-04-18T16:12:39.190Z,68.66
2023-04-18T16:15:42.898Z,68.29
2023-04-18T16:18:45.882Z,68.43
2023-04-18T16:21:50.259Z,68.66
2023-04-18T16:24:53.089Z,68.57
2023-04-18T16:27:55.889Z,68.51
2023-04-18T16:30:58.695Z,68.17
2023-04-18T16:34:03.233Z,68.26
2023-04-18T16:37:06.316Z,68.04
2023-04-18T16:40:12.511Z,68.12
2023-04-18T16:43:15.386Z,67.96
2023-04-18T16:46:19.147Z,67.94
2023-04-18T16:49:23.672Z,67.87
2023-04-18T16:52:26.703Z,67.99
2023-04-18T16:55:29.494Z,67.93
2023-04-18T16:58:32.309Z,67.86
2023-04-18T17:01:36.230Z,68.14
2023-04-18T17:04:39.483Z,68.24
2023-04-18T17:11:59.511Z,68.23
2023-04-18T17:18:52.393Z,68.54
2023-04-18T17:21:55.786Z,67.90
2023-04-18T17:24:58.659Z,67.83
2023-04-18T17:28:02.318Z,67.82
2023-04-18T17:31:05.272Z,67.75
2023-04-18T17:34:08.493Z,67.90
2023-04-18T17:37:11.868Z,67.90
2023-04-18T17:40:15.359Z,67.95
2023-04-18T17:43:18.479Z,67.81
2023-04-18T17:46:21.327Z,67.97
2023-04-18T17:49:24.182Z,68.03
2023-04-18T17:52:30.662Z,68.01
2023-04-18T17:55:33.573Z,67.94
2023-04-18T17:58:36.656Z,68.00
2023-04-18T18:01:39.659Z,67.97
2023-04-18T18:04:42.695Z,68.11
2023-04-18T18:07:48.208Z,68.20
2023-04-18T18:10:52.114Z,68.17
2023-04-18T18:13:57.193Z,68.06
2023-04-18T18:17:00.095Z,68.29
2023-04-18T18:20:04.955Z,68.15
2023-04-18T18:23:07.667Z,68.17
2023-04-18T18:26:10.726Z,68.01
2023-04-18T18:29:14.390Z,67.91
2023-04-18T18:32:17.370Z,67.73
2023-04-18T18:35:20.784Z,67.62
2023-04-18T18:38:23.886Z,67.57
2023-04-18T18:41:27.017Z,67.61
2023-04-18T18:44:30.404Z,67.54
2023-04-18T18:47:34.299Z,67.48
2023-04-18T18:50:37.921Z,67.31
2023-04-18T18:53:40.772Z,67.42
2023-04-18T18:56:45.240Z,67.36
2023-04-18T18:59:51.795Z,67.25
2023-04-18T19:02:56.014Z,67.44
2023-04-18T19:05:59.541Z,67.49
2023-04-18T19:09:02.346Z,67.41
2023-04-18T19:12:05.994Z,67.32
2023-04-18T19:15:09.789Z,67.50
2023-04-18T19:18:12.515Z,67.50
2023-04-18T19:21:16.015Z,67.40
2023-04-18T19:24:18.797Z,67.47
2023-04-18T19:27:22.154Z,67.56
2023-04-18T19:30:25.346Z,67.54
2023-04-18T19:33:29.335Z,67.80
2023-04-18T19:36:32.163Z,67.70
2023-04-18T19:39:35.089Z,67.85
2023-04-18T19:42:38.076Z,67.83
2023-04-18T19:45:40.980Z,67.72
2023-04-18T19:48:43.802Z,67.83
2023-04-18T19:51:46.530Z,68.04
2023-04-18T19:54:49.322Z,67.83
2023-04-18T19:57:56.180Z,67.33
2023-04-18T20:00:58.921Z,67.64
2023-04-18T20:04:02.251Z,67.87
2023-04-18T20:07:05.733Z,67.55
2023-04-18T20:10:09.488Z,67.38
2023-04-18T20:13:12.228Z,67.47
2023-04-18T20:16:16.934Z,67.72
2023-04-18T20:19:19.877Z,67.79
2023-04-18T20:22:24.952Z,68.08
2023-04-18T20:25:27.680Z,68.44
2023-04-18T20:28:31.472Z,68.32
2023-04-18T20:31:35.169Z,68.57
2023-04-18T20:34:38.091Z,68.88
2023-04-18T20:37:41.474Z,69.01
2023-04-18T20:40:44.992Z,69.12
2023-04-18T20:43:47.950Z,69.41
2023-04-18T20:46:53.391Z,69.69
2023-04-18T20:49:56.676Z,69.72
2023-04-18T20:53:00.611Z,69.99
2023-04-18T20:56:03.595Z,70.01
2023-04-18T20:59:06.429Z,70.15
2023-04-18T21:02:09.324Z,70.33
2023-04-18T21:05:12.392Z,70.54
2023-04-18T21:08:15.681Z,70.46
2023-04-18T21:11:18.577Z,70.63
2023-04-18T21:14:21.358Z,70.63
2023-04-18T21:17:25.565Z,70.89
2023-04-18T21:20:28.453Z,70.94
2023-04-18T21:23:31.221Z,71.04
2023-04-18T21:26:34.024Z,71.18
2023-04-18T21:29:36.769Z,71.30
2023-04-18T21:32:39.526Z,71.38
2023-04-18T21:35:42.531Z,71.49
2023-04-18T21:38:45.915Z,71.60
2023-04-18T21:41:48.611Z,71.72
2023-04-18T21:44:51.650Z,71.90
2023-04-18T21:47:54.468Z,71.99
2023-04-18T21:50:57.287Z,72.29
2023-04-18T21:54:00.423Z,72.31
2023-04-18T21:57:03.385Z,72.52
2023-04-18T22:00:08.614Z,72.60
2023-04-18T22:03:13.134Z,72.79
2023-04-18T22:06:16.238Z,72.79
2023-04-18T22:09:19.466Z,72.97
2023-04-18T22:12:22.183Z,73.13
2023-04-18T22:15:26.949Z,73.29
2023-04-18T22:18:33.618Z,73.28
2023-04-18T22:21:36.934Z,73.46
2023-04-18T22:24:39.709Z,73.55
2023-04-18T22:27:43.277Z,73.60
2023-04-18T22:30:46.248Z,73.79
2023-04-18T22:33:49.180Z,73.83
2023-04-18T22:36:51.951Z,73.88
2023-04-18T22:39:54.662Z,73.98
2023-04-18T22:42:57.416Z,74.15
2023-04-18T22:46:00.797Z,74.18
2023-04-18T22:49:04.055Z,74.29
2023-04-18T22:52:08.501Z,74.36
2023-04-18T22:55:11.409Z,74.39
2023-04-18T22:58:14.248Z,74.44
2023-04-18T23:01:17.067Z,74.64
2023-04-18T23:04:20.290Z,74.65
2023-04-18T23:07:23.339Z,74.80
2023-04-18T23:10:26.406Z,75.20
2023-04-18T23:13:29.368Z,75.21
2023-04-18T23:16:32.502Z,75.41
2023-04-18T23:19:35.312Z,75.74
2023-04-18T23:22:38.847Z,75.87
2023-04-18T23:25:41.655Z,76.29
2023-04-18T23:28:44.479Z,76.43
2023-04-18T23:31:47.378Z,76.35
2023-04-18T23:34:50.341Z,76.49
2023-04-18T23:37:53.067Z,76.50
2023-04-18T23:40:55.948Z,77.09
2023-04-18T23:43:59.707Z,77.01
2023-04-18T23:47:02.631Z,77.17
2023-04-18T23:50:06.108Z,77.19
2023-04-18T23:53:08.827Z,77.62
2023-04-18T23:56:11.703Z,77.47
2023-04-18T23:59:14.443Z,77.66
